Station Historical Data
Daily Summary for August 15, 2017 Units:  Metric    English   Both
« Previous Day
Next Day »
Daily Weekly Monthly Yearly Custom
  High: Low: Average:
Temperature: 26.6 °C 16.4 °C 21.3 °C
Dew Point: 20.4 °C 13.9 °C 17.6 °C
Humidity: 93% 66% 80%
Wind Speed: 14.5km/h 0km/h 2.4km/h
Wind Gust: 22.5km/h - -
Wind- - WSW
Pressure: 1013.4 hPa 1010 hPa -
Precipitation: 0 mm    
Historical Graphs
 
 
Tabular Data for August 15, 2017
Time Temperature Dew Point Pressure Wind Wind Speed Wind Gust Humidity Rainfall Rate (Hourly)
00:04 20 °C 15.7 °C 1010.7 hPa Calm     76% 0 mm
00:09 19.8 °C 15.5 °C 1010.4 hPa Calm     76% 0 mm
00:14 19.7 °C 15.4 °C 1010.7 hPa Calm     76% 0 mm
00:19 19.5 °C 15.2 °C 1010.7 hPa Calm     76% 0 mm
00:24 19.4 °C 14.9 °C 1010.7 hPa Calm     75% 0 mm
00:29 19.4 °C 14.8 °C 1010.7 hPa Calm     75% 0 mm
00:34 19.3 °C 14.9 °C 1010.7 hPa Calm     76% 0 mm
00:39 19.2 °C 14.8 °C 1010.7 hPa Calm     76% 0 mm
00:44 19 °C 14.7 °C 1010.7 hPa Calm     76% 0 mm
00:49 18.9 °C 14.8 °C 1010.7 hPa Calm     77% 0 mm
00:54 18.9 °C 14.8 °C 1010.7 hPa Calm     77% 0 mm
00:59 18.8 °C 14.7 °C 1010.7 hPa Calm     77% 0 mm
01:04 18.7 °C 14.6 °C 1010.7 hPa Calm     77% 0 mm
01:09 18.6 °C 14.5 °C 1010.7 hPa Calm     77% 0 mm
01:14 18.6 °C 14.4 °C 1010.7 hPa Calm     77% 0 mm
01:19 18.5 °C 14.4 °C 1010.7 hPa Calm     77% 0 mm
01:24 18.4 °C 14.3 °C 1010.7 hPa Calm     77% 0 mm
01:29 18.4 °C 14.3 °C 1010.4 hPa Calm     77% 0 mm
01:34 18.4 °C 14.5 °C 1010.7 hPa Calm     78% 0 mm
01:39 18.2 °C 14.3 °C 1010.7 hPa Calm     78% 0 mm
01:44 18.2 °C 14.5 °C 1010.4 hPa Calm     79% 0 mm
01:49 18.2 °C 14.5 °C 1010.4 hPa Calm     79% 0 mm
01:54 18.1 °C 14.4 °C 1010.4 hPa Calm     79% 0 mm
01:59 18 °C 14.3 °C 1010.4 hPa Calm     79% 0 mm
02:04 17.9 °C 14.2 °C 1010.4 hPa Calm     79% 0 mm
02:09 17.8 °C 14.1 °C 1010.4 hPa Calm     79% 0 mm
02:14 17.7 °C 14.2 °C 1010.4 hPa Calm     80% 0 mm
02:19 17.6 °C 14.1 °C 1010.4 hPa Calm     80% 0 mm
02:24 17.6 °C 14.1 °C 1010.4 hPa Calm     80% 0 mm
02:29 17.5 °C 14.2 °C 1010.4 hPa Calm     81% 0 mm
02:34 17.4 °C 14.2 °C 1010.4 hPa Calm     81% 0 mm
02:39 17.3 °C 14.1 °C 1010.4 hPa Calm     81% 0 mm
02:44 17.2 °C 14.1 °C 1010.4 hPa Calm     82% 0 mm
02:49 17.1 °C 14 °C 1010.4 hPa Calm     82% 0 mm
02:54 17.1 °C 14.2 °C 1010.4 hPa Calm     83% 0 mm
02:59 16.9 °C 14 °C 1010.4 hPa Calm     83% 0 mm
03:04 16.8 °C 13.9 °C 1010.4 hPa Calm     83% 0 mm
03:09 16.7 °C 14 °C 1010.4 hPa Calm     84% 0 mm
03:14 16.7 °C 13.9 °C 1010.4 hPa Calm     84% 0 mm
03:19 16.7 °C 14.1 °C 1010.4 hPa Calm     85% 0 mm
03:24 16.7 °C 14.1 °C 1010.4 hPa Calm     85% 0 mm
03:29 16.6 °C 14.1 °C 1010.4 hPa Calm     85% 0 mm
03:34 16.6 °C 14 °C 1010.4 hPa Calm     85% 0 mm
03:39 16.6 °C 14 °C 1010.4 hPa Calm     85% 0 mm
03:44 16.6 °C 14.2 °C 1010.4 hPa Calm     86% 0 mm
03:49 16.5 °C 14.2 °C 1010.4 hPa Calm     86% 0 mm
03:54 16.5 °C 14.2 °C 1010 hPa Calm     86% 0 mm
03:59 16.6 °C 14.2 °C 1010 hPa Calm     86% 0 mm
04:04 16.6 °C 14.3 °C 1010 hPa Calm     86% 0 mm
04:09 16.6 °C 14.3 °C 1010 hPa Calm     86% 0 mm
04:14 16.6 °C 14.3 °C 1010 hPa Calm     86% 0 mm
04:19 16.6 °C 14.2 °C 1010 hPa Calm     86% 0 mm
04:24 16.5 °C 14.3 °C 1010 hPa Calm     87% 0 mm
04:29 16.6 °C 14.4 °C 1010 hPa Calm     87% 0 mm
04:34 16.6 °C 14.4 °C 1010 hPa Calm     87% 0 mm
04:39 16.6 °C 14.4 °C 1010 hPa Calm     87% 0 mm
04:44 16.6 °C 14.4 °C 1010 hPa Calm     87% 0 mm
04:49 16.6 °C 14.6 °C 1010 hPa Calm     88% 0 mm
04:54 16.6 °C 14.6 °C 1010 hPa Calm     88% 0 mm
04:59 16.6 °C 14.6 °C 1010 hPa Calm     88% 0 mm
05:04 16.6 °C 14.6 °C 1010 hPa Calm     88% 0 mm
05:09 16.6 °C 14.6 °C 1010 hPa Calm     88% 0 mm
05:14 16.6 °C 14.7 °C 1010 hPa Calm     89% 0 mm
05:19 16.5 °C 14.7 °C 1010 hPa Calm     89% 0 mm
05:24 16.4 °C 14.6 °C 1010 hPa Calm     89% 0 mm
05:29 16.4 °C 14.6 °C 1010 hPa Calm     89% 0 mm
05:34 16.4 °C 14.8 °C 1010.4 hPa Calm     90% 0 mm
05:39 16.6 °C 14.9 °C 1010.4 hPa Calm   8 km/h 90% 0 mm
05:44 16.9 °C 15.2 °C 1010.4 hPa Calm   4.8 km/h 90% 0 mm
05:49 17.1 °C 15.4 °C 1010.4 hPa South 1.6 km/h 4.8 km/h 90% 0 mm
05:54 17.1 °C 15.4 °C 1010.4 hPa SSW 1.6 km/h 4.8 km/h 90% 0 mm
05:59 17.1 °C 15.4 °C 1010.4 hPa Calm   3.2 km/h 90% 0 mm
06:04 17 °C 15.3 °C 1010.4 hPa Calm     90% 0 mm
06:09 16.9 °C 15.3 °C 1010.4 hPa Calm     90% 0 mm
06:14 16.9 °C 15.3 °C 1010.4 hPa Calm     90% 0 mm
06:19 17 °C 15.3 °C 1010.4 hPa Calm     90% 0 mm
06:24 17.1 °C 15.4 °C 1010.4 hPa Calm     90% 0 mm
06:29 17.2 °C 15.5 °C 1010.4 hPa Calm     90% 0 mm
06:34 17.2 °C 15.6 °C 1010.4 hPa Calm     90% 0 mm
06:39 17.3 °C 15.8 °C 1010.4 hPa Calm     91% 0 mm
06:44 17.4 °C 15.9 °C 1010.4 hPa Calm     91% 0 mm
06:49 17.6 °C 16.1 °C 1010.4 hPa Calm     91% 0 mm
06:54 17.7 °C 16.1 °C 1010.7 hPa Calm     90% 0 mm
06:59 17.7 °C 16.1 °C 1010.4 hPa Calm     90% 0 mm
07:04 17.8 °C 16.1 °C 1010.7 hPa Calm     90% 0 mm
07:09 17.9 °C 16.2 °C 1010.7 hPa Calm     90% 0 mm
07:14 17.9 °C 16.3 °C 1010.7 hPa Calm     90% 0 mm
07:19 18.1 °C 16.4 °C 1010.7 hPa Calm     90% 0 mm
07:24 18.4 °C 16.7 °C 1010.4 hPa Calm     90% 0 mm
07:29 18.7 °C 17.1 °C 1010.4 hPa Calm     90% 0 mm
07:34 19.1 °C 17.3 °C 1010.7 hPa Calm     89% 0 mm
07:39 19.3 °C 17.3 °C 1010.7 hPa Calm     88% 0 mm
07:44 19.5 °C 17.4 °C 1010.7 hPa Calm     88% 0 mm
07:49 19.8 °C 17.6 °C 1010.4 hPa Calm   3.2 km/h 87% 0 mm
07:54 19.9 °C 17.6 °C 1010.4 hPa South 1.6 km/h 4.8 km/h 86% 0 mm
07:59 20 °C 17.6 °C 1010.4 hPa SSE 3.2 km/h 6.4 km/h 86% 0 mm
08:04 20.1 °C 17.4 °C 1010.7 hPa South 1.6 km/h 4.8 km/h 85% 0 mm
08:09 20.1 °C 17.7 °C 1010.7 hPa South 1.6 km/h 4.8 km/h 86% 0 mm
08:14 20.3 °C 17.8 °C 1010.4 hPa SSW 8 km/h 8 km/h 86% 0 mm
08:19 20.6 °C 17.9 °C 1010.4 hPa South 4.8 km/h 9.7 km/h 85% 0 mm
08:24 20.7 °C 17.7 °C 1010.4 hPa SSW 3.2 km/h 8 km/h 83% 0 mm
08:29 21.1 °C 17.9 °C 1010.4 hPa SW 3.2 km/h 8 km/h 82% 0 mm
08:34 21.3 °C 17.9 °C 1010.4 hPa South 4.8 km/h 9.7 km/h 81% 0 mm
08:39 21.6 °C 17.9 °C 1010.4 hPa South 4.8 km/h 11.3 km/h 80% 0 mm
08:44 21.7 °C 17.9 °C 1010.4 hPa South 4.8 km/h 11.3 km/h 79% 0 mm
08:49 21.9 °C 17.9 °C 1010.4 hPa SSE 1.6 km/h 11.3 km/h 78% 0 mm
08:54 22.1 °C 18.1 °C 1010.4 hPa SSE 4.8 km/h 11.3 km/h 78% 0 mm
08:59 22.5 °C 18.1 °C 1010.4 hPa WSW 3.2 km/h 9.7 km/h 76% 0 mm
09:04 22.8 °C 18.3 °C 1010.4 hPa SSW 4.8 km/h 12.9 km/h 76% 0 mm
09:09 22.7 °C 17.8 °C 1010.4 hPa SSW 4.8 km/h 12.9 km/h 74% 0 mm
09:14 22.4 °C 17.8 °C 1010.4 hPa SSW 3.2 km/h 12.9 km/h 75% 0 mm
09:19 22.5 °C 18.1 °C 1010.4 hPa SSE 8 km/h 12.9 km/h 76% 0 mm
09:24 23.1 °C 18.4 °C 1010.4 hPa WSW 6.4 km/h 12.9 km/h 75% 0 mm
09:29 23.5 °C 18.6 °C 1010.4 hPa SSW 8 km/h 11.3 km/h 74% 0 mm
09:34 23.7 °C 18.6 °C 1010.4 hPa SW 3.2 km/h 11.3 km/h 73% 0 mm
09:39 23.9 °C 18.6 °C 1010.4 hPa SW 6.4 km/h 12.9 km/h 72% 0 mm
09:44 24.2 °C 18.6 °C 1010.4 hPa SW 6.4 km/h 12.9 km/h 71% 0 mm
09:49 24.4 °C 18.6 °C 1010.4 hPa South 8 km/h 16.1 km/h 70% 0 mm
09:54 24.3 °C 18.5 °C 1010 hPa WSW 6.4 km/h 19.3 km/h 70% 0 mm
09:59 24.5 °C 18.4 °C 1010.4 hPa SW 4.8 km/h 16.1 km/h 69% 0 mm
10:04 24.7 °C 18.6 °C 1010.4 hPa SW 3.2 km/h 11.3 km/h 69% 0 mm
10:09 24.8 °C 18.8 °C 1010.4 hPa SW 8 km/h 16.1 km/h 69% 0 mm
10:14 25 °C 18.7 °C 1010.4 hPa SW 8 km/h 16.1 km/h 68% 0 mm
10:19 25.1 °C 18.9 °C 1010.4 hPa SW 8 km/h 19.3 km/h 69% 0 mm
10:24 25.2 °C 18.6 °C 1010.4 hPa SW 8 km/h 19.3 km/h 67% 0 mm
10:29 25.1 °C 18.8 °C 1010.4 hPa WSW 9.7 km/h 17.7 km/h 68% 0 mm
10:34 25.3 °C 18.7 °C 1010.4 hPa SW 9.7 km/h 19.3 km/h 67% 0 mm
10:39 25.3 °C 18.9 °C 1010.4 hPa WSW 9.7 km/h 16.1 km/h 68% 0 mm
10:44 25.3 °C 18.7 °C 1010.4 hPa West 4.8 km/h 16.1 km/h 67% 0 mm
10:49 25.7 °C 19.6 °C 1010.4 hPa West 6.4 km/h 17.7 km/h 69% 0 mm
10:54 25.4 °C 18.6 °C 1010.7 hPa WSW 9.7 km/h 20.9 km/h 66% 0 mm
10:59 24.8 °C 18.5 °C 1010.7 hPa West 6.4 km/h 14.5 km/h 68% 0 mm
11:04 24.7 °C 18.8 °C 1010.7 hPa WSW 6.4 km/h 20.9 km/h 70% 0 mm
11:09 24.5 °C 18.4 °C 1010.7 hPa West 9.7 km/h 19.3 km/h 69% 0 mm
11:14 24.4 °C 18.6 °C 1010.7 hPa SW 8 km/h 19.3 km/h 70% 0 mm
11:19 24.4 °C 18.3 °C 1010.7 hPa SSW 6.4 km/h 19.3 km/h 69% 0 mm
11:24 24.4 °C 18.8 °C 1010.7 hPa SW 9.7 km/h 19.3 km/h 71% 0 mm
11:29 24.2 °C 18.1 °C 1010.7 hPa SW 9.7 km/h 22.5 km/h 69% 0 mm
11:34 24.3 °C 18.4 °C 1010.7 hPa SW 8 km/h 20.9 km/h 70% 0 mm
11:39 24.4 °C 18.3 °C 1010.4 hPa SW 11.3 km/h 20.9 km/h 69% 0 mm
11:44 24.7 °C 18.9 °C 1010.4 hPa WSW 3.2 km/h 16.1 km/h 70% 0 mm
11:49 25.1 °C 19 °C 1010.4 hPa SW 12.9 km/h 12.9 km/h 69% 0 mm
11:54 25.1 °C 18.8 °C 1010.4 hPa West 6.4 km/h 16.1 km/h 68% 0 mm
11:59 25.1 °C 18.8 °C 1010.4 hPa West 9.7 km/h 9.7 km/h 68% 0 mm
12:04 24.8 °C 18.7 °C 1010.4 hPa WSW 14.5 km/h 17.7 km/h 69% 0 mm
12:09 24.9 °C 19.3 °C 1010.4 hPa SW 6.4 km/h 14.5 km/h 71% 0 mm
12:14 25 °C 19.2 °C 1010.7 hPa WSW 11.3 km/h 16.1 km/h 70% 0 mm
12:19 24.8 °C 18.9 °C 1010.7 hPa WSW 8 km/h 16.1 km/h 70% 0 mm
12:24 24.3 °C 18.7 °C 1010.7 hPa West 8 km/h 16.1 km/h 71% 0 mm
12:29 23.8 °C 18.7 °C 1010.4 hPa West 6.4 km/h 14.5 km/h 73% 0 mm
12:34 23.7 °C 19.2 °C 1010.4 hPa WSW 4.8 km/h 11.3 km/h 76% 0 mm
12:39 24.2 °C 19.7 °C 1010.4 hPa West 6.4 km/h 9.7 km/h 76% 0 mm
12:44 24.7 °C 19.5 °C 1010.4 hPa SSW 3.2 km/h 9.7 km/h 73% 0 mm
12:49 25.4 °C 20 °C 1010.4 hPa WSW 4.8 km/h 9.7 km/h 72% 0 mm
12:54 26.1 °C 20.2 °C 1010.4 hPa SW 4.8 km/h 11.3 km/h 70% 0 mm
12:59 26.1 °C 19.5 °C 1010.4 hPa WSW 6.4 km/h 12.9 km/h 67% 0 mm
13:04 25.7 °C 19.3 °C 1010.4 hPa WSW 3.2 km/h 12.9 km/h 68% 0 mm
13:09 25.9 °C 19.6 °C 1010.4 hPa SW 8 km/h 16.1 km/h 68% 0 mm
13:14 25.7 °C 19.6 °C 1010 hPa West 3.2 km/h 14.5 km/h 69% 0 mm
13:19 25.4 °C 19.3 °C 1010.4 hPa WSW 11.3 km/h 17.7 km/h 69% 0 mm
13:24 25.4 °C 19.6 °C 1010 hPa WSW 8 km/h 17.7 km/h 70% 0 mm
13:29 25.6 °C 19.7 °C 1010 hPa WSW 8 km/h 17.7 km/h 70% 0 mm
13:34 25.4 °C 19.6 °C 1010 hPa West 8 km/h 16.1 km/h 70% 0 mm
13:39 25.3 °C 19.4 °C 1010 hPa WSW 12.9 km/h 16.1 km/h 70% 0 mm
13:44 24.9 °C 19.3 °C 1010.4 hPa SW 8 km/h 12.9 km/h 71% 0 mm
13:49 24.9 °C 19.6 °C 1010.4 hPa WNW 3.2 km/h 14.5 km/h 72% 0 mm
13:54 25.1 °C 19.7 °C 1010.4 hPa WSW 8 km/h 19.3 km/h 72% 0 mm
13:59 25.2 °C 19.8 °C 1010.7 hPa West 6.4 km/h 19.3 km/h 72% 0 mm
14:04 24.9 °C 19.7 °C 1010.7 hPa West 8 km/h 17.7 km/h 73% 0 mm
14:09 24.8 °C 19.9 °C 1010.7 hPa WSW 6.4 km/h 17.7 km/h 74% 0 mm
14:14 24.4 °C 18.3 °C 1011.1 hPa NNW 6.4 km/h 12.9 km/h 69% 0 mm
14:19 23 °C 17.2 °C 1011.4 hPa NNE 4.8 km/h 12.9 km/h 70% 0 mm
14:24 22.2 °C 17.1 °C 1011.1 hPa NW 4.8 km/h 12.9 km/h 73% 0 mm
14:29 21.7 °C 17.4 °C 1011.1 hPa NNW 3.2 km/h 12.9 km/h 77% 0 mm
14:34 21.4 °C 18.1 °C 1011.4 hPa North 1.6 km/h 8 km/h 81% 0 mm
14:39 21.4 °C 17.8 °C 1011.4 hPa NNW 1.6 km/h 1.6 km/h 80% 0 mm
14:44 21.7 °C 18.4 °C 1011.4 hPa NNW 3.2 km/h 4.8 km/h 82% 0 mm
14:49 21.8 °C 18.6 °C 1011.4 hPa NNW 1.6 km/h 4.8 km/h 82% 0 mm
14:54 21.8 °C 18.6 °C 1011.4 hPa NNW 3.2 km/h 8 km/h 82% 0 mm
14:59 21.9 °C 18.5 °C 1011.4 hPa NNW 3.2 km/h 8 km/h 81% 0 mm
15:04 22.3 °C 18.9 °C 1011.4 hPa NNW 3.2 km/h 8 km/h 81% 0 mm
15:09 22.6 °C 19.2 °C 1011.4 hPa NNW 1.6 km/h 8 km/h 81% 0 mm
15:14 23.2 °C 19.1 °C 1011.4 hPa NNW 1.6 km/h 9.7 km/h 78% 0 mm
15:19 23.2 °C 19.2 °C 1011.4 hPa NNW 3.2 km/h 9.7 km/h 78% 0 mm
15:24 23.4 °C 19.1 °C 1011.1 hPa NNW 3.2 km/h 9.7 km/h 77% 0 mm
15:29 23.7 °C 19.2 °C 1011.1 hPa WNW 3.2 km/h 6.4 km/h 76% 0 mm
15:34 24.1 °C 19.3 °C 1011.4 hPa Calm   4.8 km/h 75% 0 mm
15:39 24.1 °C 19.6 °C 1011.1 hPa Calm   4.8 km/h 76% 0 mm
15:44 24.3 °C 19.4 °C 1011.1 hPa Calm   3.2 km/h 74% 0 mm
15:49 24.4 °C 19.5 °C 1011.1 hPa Calm   4.8 km/h 74% 0 mm
15:54 24.7 °C 19.5 °C 1011.1 hPa Calm     73% 0 mm
15:59 24.9 °C 19.9 °C 1011.1 hPa Calm     74% 0 mm
16:04 24.9 °C 19.3 °C 1011.1 hPa Calm   4.8 km/h 71% 0 mm
16:09 24.9 °C 19.3 °C 1011.1 hPa Calm   6.4 km/h 71% 0 mm
16:14 25.5 °C 19.4 °C 1011.1 hPa Calm   6.4 km/h 69% 0 mm
16:19 25.8 °C 19.7 °C 1010.7 hPa NNW 8 km/h 11.3 km/h 69% 0 mm
16:24 25.6 °C 19.4 °C 1010.7 hPa WNW 4.8 km/h 8 km/h 69% 0 mm
16:29 25.4 °C 19.1 °C 1010.7 hPa WNW 3.2 km/h 8 km/h 68% 0 mm
16:34 25.8 °C 19.2 °C 1010.7 hPa West 3.2 km/h 8 km/h 67% 0 mm
16:39 25.8 °C 19 °C 1010.7 hPa West 3.2 km/h 11.3 km/h 66% 0 mm
16:44 25.8 °C 19 °C 1010.7 hPa WSW 1.6 km/h 9.7 km/h 66% 0 mm
16:49 25.7 °C 18.8 °C 1010.7 hPa SW 4.8 km/h 9.7 km/h 66% 0 mm
16:54 25.6 °C 19 °C 1010.7 hPa SW 6.4 km/h 8 km/h 67% 0 mm
16:59 25.4 °C 19.3 °C 1010.7 hPa WNW 1.6 km/h 8 km/h 69% 0 mm
17:04 25.3 °C 19 °C 1010.7 hPa WSW 3.2 km/h 8 km/h 68% 0 mm
17:09 25.5 °C 19.4 °C 1010.4 hPa West 1.6 km/h 8 km/h 69% 0 mm
17:14 25.7 °C 19.3 °C 1010.4 hPa Calm   8 km/h 68% 0 mm
17:19 25.7 °C 19.1 °C 1010.4 hPa SW 1.6 km/h 4.8 km/h 67% 0 mm
17:24 26.1 °C 19.4 °C 1010.4 hPa SW 3.2 km/h 3.2 km/h 67% 0 mm
17:29 26.1 °C 19.4 °C 1010.7 hPa Calm   3.2 km/h 67% 0 mm
17:34 26.3 °C 19.4 °C 1010.7 hPa Calm   4.8 km/h 66% 0 mm
17:39 26.6 °C 19.7 °C 1010.7 hPa WSW 1.6 km/h 8 km/h 66% 0 mm
17:44 26.3 °C 19.4 °C 1010.7 hPa WSW 4.8 km/h 8 km/h 66% 0 mm
17:49 26.3 °C 19.7 °C 1010.7 hPa SW 4.8 km/h 11.3 km/h 67% 0 mm
17:54 25.9 °C 19.6 °C 1010.7 hPa SW 4.8 km/h 8 km/h 68% 0 mm
17:59 25.8 °C 19.9 °C 1010.7 hPa WNW 3.2 km/h 9.7 km/h 70% 0 mm
18:04 25.4 °C 19.6 °C 1010.7 hPa SSW 3.2 km/h 9.7 km/h 70% 0 mm
18:09 25.1 °C 19.5 °C 1010.7 hPa SW 4.8 km/h 9.7 km/h 71% 0 mm
18:14 25 °C 19.4 °C 1011.1 hPa WSW 4.8 km/h 9.7 km/h 71% 0 mm
18:19 24.9 °C 19.8 °C 1011.1 hPa SW 4.8 km/h 8 km/h 73% 0 mm
18:24 24.7 °C 20.2 °C 1011.1 hPa SW 3.2 km/h 9.7 km/h 76% 0.25 mm
18:29 24.3 °C 20.4 °C 1011.1 hPa Calm   6.4 km/h 79% 0.51 mm
18:34 23.8 °C 20.4 °C 1011.1 hPa West 4.8 km/h 6.4 km/h 81% 1.27 mm
18:39 23.3 °C 20.1 °C 1011.1 hPa WNW 3.2 km/h 9.7 km/h 82% 1.27 mm
18:44 22.8 °C 19.7 °C 1011.1 hPa NW 3.2 km/h 9.7 km/h 83% 1.27 mm
18:49 22.6 °C 19.7 °C 1011.4 hPa NNW 3.2 km/h 9.7 km/h 84% 1.27 mm
18:54 22.4 °C 19.7 °C 1011.1 hPa NNW 3.2 km/h 9.7 km/h 85% 1.27 mm
18:59 22.4 °C 20.1 °C 1011.1 hPa NNW 1.6 km/h 6.4 km/h 87% 1.27 mm
19:04 22.3 °C 19.9 °C 1011.1 hPa Calm   4.8 km/h 86% 1.52 mm
19:09 22.4 °C 20 °C 1011.4 hPa SW 4.8 km/h 8 km/h 86% 1.52 mm
19:14 22.2 °C 19.5 °C 1011.4 hPa SSW 4.8 km/h 9.7 km/h 85% 1.52 mm
19:19 22.1 °C 19.2 °C 1011.4 hPa SW 1.6 km/h 8 km/h 84% 1.52 mm
19:24 22.1 °C 19.3 °C 1011.4 hPa Calm   3.2 km/h 84% 1.27 mm
19:29 22.2 °C 19.4 °C 1011.4 hPa SW 1.6 km/h 6.4 km/h 84% 1.02 mm
19:34 22.4 °C 19.6 °C 1011.4 hPa SW 1.6 km/h 8 km/h 84% 0.25 mm
19:39 22.5 °C 19.8 °C 1011.4 hPa SW 3.2 km/h 8 km/h 85% 0.25 mm
19:44 22.6 °C 19.7 °C 1011.4 hPa SW 1.6 km/h 8 km/h 84% 0.25 mm
19:49 22.5 °C 19.7 °C 1011.7 hPa WSW 1.6 km/h 4.8 km/h 84% 0.25 mm
19:54 22.5 °C 19.8 °C 1011.7 hPa WSW 1.6 km/h 4.8 km/h 85% 0.25 mm
19:59 22.4 °C 19.8 °C 1011.7 hPa Calm     85% 0.25 mm
20:04 22.3 °C 19.7 °C 1011.7 hPa Calm     85% 0 mm
20:09 22.2 °C 19.5 °C 1011.7 hPa Calm     85% 0 mm
20:14 21.9 °C 19.3 °C 1011.4 hPa Calm     85% 0 mm
20:19 21.9 °C 19.4 °C 1011.7 hPa Calm     86% 0 mm
20:24 21.8 °C 19.3 °C 1011.7 hPa Calm     86% 0 mm
20:29 21.7 °C 19.4 °C 1011.7 hPa Calm     87% 0 mm
20:34 21.5 °C 19.2 °C 1011.7 hPa Calm     87% 0 mm
20:39 21.3 °C 19.1 °C 1011.7 hPa Calm     87% 0 mm
20:44 21.2 °C 19.1 °C 1011.7 hPa Calm     88% 0 mm
20:49 21.1 °C 19 °C 1011.7 hPa Calm     88% 0 mm
20:54 21.1 °C 19.2 °C 1012.1 hPa Calm     89% 0 mm
20:59 21 °C 19.1 °C 1012.1 hPa Calm     89% 0 mm
21:04 20.9 °C 19 °C 1012.1 hPa Calm     89% 0 mm
21:09 20.8 °C 18.9 °C 1012.1 hPa Calm     89% 0 mm
21:14 20.7 °C 18.8 °C 1012.1 hPa Calm     89% 0 mm
21:19 20.7 °C 18.9 °C 1012.1 hPa Calm     90% 0 mm
21:24 20.6 °C 18.8 °C 1012.1 hPa Calm     90% 0 mm
21:29 20.4 °C 18.7 °C 1012.1 hPa Calm     90% 0 mm
21:34 20.4 °C 18.7 °C 1012.4 hPa Calm     90% 0 mm
21:39 20.4 °C 18.7 °C 1012.4 hPa Calm     90% 0 mm
21:44 20.4 °C 18.7 °C 1012.4 hPa Calm     90% 0 mm
21:49 20.3 °C 18.8 °C 1012.4 hPa Calm     91% 0 mm
21:54 20.3 °C 18.8 °C 1012.4 hPa Calm     91% 0 mm
21:59 20.2 °C 18.7 °C 1012.4 hPa Calm     91% 0 mm
22:04 20.1 °C 18.6 °C 1012.4 hPa Calm     91% 0 mm
22:09 20.1 °C 18.6 °C 1012.4 hPa Calm     91% 0 mm
22:14 19.9 °C 18.4 °C 1012.4 hPa Calm     91% 0 mm
22:19 20 °C 18.5 °C 1012.8 hPa Calm     91% 0 mm
22:24 19.9 °C 18.4 °C 1012.4 hPa Calm     91% 0 mm
22:29 19.8 °C 18.5 °C 1012.8 hPa Calm     92% 0 mm
22:34 19.8 °C 18.5 °C 1012.8 hPa Calm     92% 0 mm
22:39 19.8 °C 18.4 °C 1012.8 hPa Calm     92% 0 mm
22:44 19.8 °C 18.4 °C 1012.8 hPa Calm     92% 0 mm
22:49 19.7 °C 18.3 °C 1012.8 hPa Calm     92% 0 mm
22:54 19.8 °C 18.4 °C 1013.1 hPa Calm     92% 0 mm
22:59 19.8 °C 18.4 °C 1012.8 hPa Calm     92% 0 mm
23:04 19.8 °C 18.5 °C 1013.1 hPa Calm     92% 0 mm
23:09 19.7 °C 18.4 °C 1013.1 hPa Calm     92% 0 mm
23:19 19.7 °C 18.3 °C 1013.1 hPa Calm     92% 0 mm
23:24 19.6 °C 18.3 °C 1013.1 hPa Calm     92% 0 mm
23:29 19.6 °C 18.3 °C 1013.1 hPa Calm     92% 0 mm
23:34 19.6 °C 18.4 °C 1013.1 hPa Calm     93% 0 mm
23:39 19.8 °C 18.6 °C 1013.1 hPa Calm     93% 0 mm
23:44 19.8 °C 18.4 °C 1013.1 hPa Calm     92% 0 mm
23:49 19.7 °C 18.3 °C 1013.4 hPa Calm     92% 0 mm
23:54 19.5 °C 18.2 °C 1013.4 hPa Calm     92% 0 mm
23:59 19.5 °C 18.3 °C 1013.4 hPa Calm     93% 0 mm
Buffalo, New York, USA
Compliments of Weather Underground - 2.5 mb